createdAt,value
2023-04-28T00:02:23.276Z,2.30
2023-04-28T00:04:50.907Z,2.30
2023-04-28T00:07:18.405Z,2.30
2023-04-28T00:09:46.015Z,2.30
2023-04-28T00:12:13.139Z,2.30
2023-04-28T00:14:40.958Z,2.20
2023-04-28T00:17:09.683Z,2.20
2023-04-28T00:19:38.983Z,2.20
2023-04-28T00:22:06.880Z,2.20
2023-04-28T00:24:34.156Z,2.20
2023-04-28T00:27:01.754Z,2.20
2023-04-28T00:29:30.314Z,2.20
2023-04-28T00:31:57.594Z,2.20
2023-04-28T00:34:24.770Z,2.10
2023-04-28T00:36:52.095Z,2.10
2023-04-28T00:39:19.322Z,2.10
2023-04-28T00:41:49.194Z,2.10
2023-04-28T00:44:16.674Z,2.10
2023-04-28T00:46:45.581Z,2.00
2023-04-28T00:49:13.099Z,2.00
2023-04-28T00:51:40.395Z,2.00
2023-04-28T00:54:07.819Z,2.00
2023-04-28T00:56:35.281Z,2.00
2023-04-28T00:59:02.569Z,2.00
2023-04-28T01:01:29.929Z,2.00
2023-04-28T01:03:57.303Z,1.90
2023-04-28T01:06:24.910Z,1.90
2023-04-28T01:08:52.350Z,1.90
2023-04-28T01:11:19.837Z,1.90
2023-04-28T01:13:47.532Z,1.90
2023-04-28T01:16:14.769Z,1.90
2023-04-28T01:18:47.943Z,1.70
2023-04-28T01:21:15.476Z,1.70
2023-04-28T01:23:46.706Z,1.80
2023-04-28T01:26:13.969Z,1.70
2023-04-28T01:28:41.320Z,1.70
2023-04-28T01:31:08.512Z,1.70
2023-04-28T01:33:37.233Z,1.60
2023-04-28T01:36:04.973Z,1.60
2023-04-28T01:38:32.507Z,1.60
2023-04-28T01:40:59.972Z,1.60
2023-04-28T01:43:27.139Z,1.60
2023-04-28T01:45:54.322Z,1.60
2023-04-28T01:48:21.780Z,1.60
2023-04-28T01:50:49.291Z,1.50
2023-04-28T01:53:20.815Z,1.60
2023-04-28T01:55:48.146Z,1.60
2023-04-28T01:58:15.465Z,1.60
2023-04-28T02:00:42.584Z,1.50
2023-04-28T02:03:10.078Z,1.50
2023-04-28T02:05:38.330Z,1.50
2023-04-28T02:08:05.860Z,1.50
2023-04-28T02:10:33.423Z,1.50
2023-04-28T02:13:00.824Z,1.40
2023-04-28T02:15:28.035Z,1.40
2023-04-28T02:17:56.168Z,1.40
2023-04-28T02:20:23.777Z,1.40
2023-04-28T02:22:51.586Z,1.40
2023-04-28T02:25:19.029Z,1.40
2023-04-28T02:27:47.519Z,1.40
2023-04-28T02:30:14.817Z,1.40
2023-04-28T02:32:42.156Z,1.40
2023-04-28T02:35:09.715Z,1.50
2023-04-28T02:37:37.240Z,1.50
2023-04-28T02:40:04.751Z,1.60
2023-04-28T02:42:32.006Z,1.60
2023-04-28T02:44:59.225Z,1.60
2023-04-28T02:47:27.028Z,1.60
2023-04-28T02:49:54.374Z,1.60
2023-04-28T02:52:21.602Z,1.60
2023-04-28T02:54:49.453Z,1.60
2023-04-28T02:57:16.855Z,1.60
2023-04-28T02:59:44.422Z,1.70
2023-04-28T03:02:12.785Z,1.70
2023-04-28T03:04:40.071Z,1.70
2023-04-28T03:07:07.376Z,1.60
2023-04-28T03:09:35.081Z,1.60
2023-04-28T03:12:03.959Z,1.70
2023-04-28T03:14:31.156Z,1.70
2023-04-28T03:16:58.961Z,1.70
2023-04-28T03:19:27.602Z,1.80
2023-04-28T03:21:55.232Z,1.80
2023-04-28T03:24:23.079Z,1.80
2023-04-28T03:26:50.476Z,1.80
2023-04-28T03:29:17.770Z,1.90
2023-04-28T03:31:45.324Z,1.90
2023-04-28T03:34:12.828Z,1.80
2023-04-28T03:36:40.061Z,1.80
2023-04-28T03:39:07.305Z,1.80
2023-04-28T03:41:34.780Z,1.90
2023-04-28T03:44:02.081Z,1.90
2023-04-28T03:46:29.602Z,1.90
2023-04-28T03:48:57.424Z,1.90
2023-04-28T03:51:24.680Z,2.00
2023-04-28T03:53:52.026Z,2.00
2023-04-28T03:56:19.372Z,2.10
2023-04-28T03:58:47.076Z,2.10
2023-04-28T04:01:14.548Z,2.10
2023-04-28T04:03:42.279Z,2.20
2023-04-28T04:06:09.847Z,2.30
2023-04-28T04:08:37.256Z,2.30
2023-04-28T04:11:04.637Z,2.40
2023-04-28T04:13:32.266Z,2.50
2023-04-28T04:16:00.325Z,2.50
2023-04-28T04:18:27.706Z,2.60
2023-04-28T04:20:57.338Z,2.60
2023-04-28T04:23:25.631Z,2.60
2023-04-28T04:25:52.873Z,2.70
2023-04-28T04:28:20.102Z,2.80
2023-04-28T04:30:48.153Z,2.90
2023-04-28T04:33:15.364Z,2.90
2023-04-28T04:35:42.547Z,3.10
2023-04-28T04:38:09.854Z,3.10
2023-04-28T04:40:37.257Z,3.20
2023-04-28T04:43:04.417Z,3.30
2023-04-28T04:45:31.715Z,3.40
2023-04-28T04:47:59.498Z,3.40
2023-04-28T04:50:26.994Z,3.40
2023-04-28T04:52:56.849Z,3.40
2023-04-28T04:55:24.025Z,3.40
2023-04-28T04:57:52.632Z,3.50
2023-04-28T05:00:20.291Z,3.60
2023-04-28T05:02:48.054Z,3.70
2023-04-28T05:05:21.225Z,3.80
2023-04-28T05:07:49.580Z,3.80
2023-04-28T05:10:20.574Z,3.80
2023-04-28T05:12:49.139Z,3.90
2023-04-28T05:15:16.716Z,4.10
2023-04-28T05:17:44.007Z,4.30
2023-04-28T05:20:12.866Z,4.50
2023-04-28T05:22:40.316Z,4.50
2023-04-28T05:25:08.182Z,4.60
2023-04-28T05:27:39.932Z,4.70
2023-04-28T05:30:10.918Z,4.70
2023-04-28T05:32:39.125Z,4.80
2023-04-28T05:35:06.795Z,4.90
2023-04-28T05:37:34.162Z,5.10
2023-04-28T05:40:01.587Z,5.10
2023-04-28T05:42:28.886Z,5.20
2023-04-28T05:44:56.286Z,5.30
2023-04-28T05:47:23.722Z,5.50
2023-04-28T05:49:51.160Z,5.70
2023-04-28T05:52:18.323Z,5.80
2023-04-28T05:54:45.820Z,5.80
2023-04-28T05:57:13.308Z,6.00
2023-04-28T05:59:42.837Z,6.10
2023-04-28T06:02:11.197Z,6.30
2023-04-28T06:04:40.123Z,6.60
2023-04-28T06:07:08.444Z,6.80
2023-04-28T06:09:35.647Z,7.00
2023-04-28T06:12:04.311Z,7.10
2023-04-28T06:14:31.929Z,7.30
2023-04-28T06:16:59.141Z,7.60
2023-04-28T06:19:26.433Z,7.80
2023-04-28T06:21:54.115Z,8.00
2023-04-28T06:24:21.749Z,8.10
2023-04-28T06:26:49.188Z,8.40
2023-04-28T06:29:16.587Z,8.50
2023-04-28T06:31:44.517Z,8.60
2023-04-28T06:34:12.131Z,8.70
2023-04-28T06:36:39.543Z,8.80
2023-04-28T06:39:07.401Z,9.00
2023-04-28T06:41:34.735Z,9.20
2023-04-28T06:44:02.323Z,9.40
2023-04-28T06:46:30.425Z,9.50
2023-04-28T06:48:58.509Z,9.70
2023-04-28T06:51:27.062Z,9.90
2023-04-28T06:53:54.645Z,10.10
2023-04-28T06:56:22.527Z,10.30
2023-04-28T06:58:49.968Z,10.50
2023-04-28T07:01:17.701Z,10.50
2023-04-28T07:03:44.955Z,10.60
2023-04-28T07:06:13.128Z,10.90
2023-04-28T07:08:40.573Z,11.10
2023-04-28T07:11:07.904Z,11.40
2023-04-28T07:13:35.068Z,11.50
2023-04-28T07:16:02.632Z,11.70
2023-04-28T07:18:30.041Z,11.80
2023-04-28T07:20:57.393Z,11.80
2023-04-28T07:23:24.724Z,11.70
2023-04-28T07:25:52.242Z,11.80
2023-04-28T07:28:20.709Z,12.20
2023-04-28T07:30:48.109Z,12.50
2023-04-28T07:33:15.459Z,12.90
2023-04-28T07:35:43.048Z,13.30
2023-04-28T07:38:10.515Z,13.50
2023-04-28T07:40:38.156Z,13.60
2023-04-28T07:43:05.400Z,13.60
2023-04-28T07:45:32.762Z,13.50
2023-04-28T07:48:00.468Z,13.50
2023-04-28T07:50:27.885Z,13.50
2023-04-28T07:52:55.666Z,13.70
2023-04-28T07:55:22.995Z,13.70
2023-04-28T07:57:51.045Z,13.80
2023-04-28T08:00:20.047Z,13.90
2023-04-28T08:02:48.099Z,14.00
2023-04-28T08:05:17.362Z,14.30
2023-04-28T08:07:44.716Z,14.40
2023-04-28T08:10:15.820Z,14.40
2023-04-28T08:12:43.114Z,14.60
2023-04-28T08:15:11.150Z,14.90
2023-04-28T08:17:38.407Z,14.80
2023-04-28T08:20:07.253Z,15.00
2023-04-28T08:22:34.400Z,15.00
2023-04-28T08:25:01.529Z,14.90
2023-04-28T08:27:28.830Z,15.00
2023-04-28T08:29:56.243Z,15.00
2023-04-28T08:32:23.714Z,15.40
2023-04-28T08:34:51.127Z,16.00
2023-04-28T08:37:18.604Z,16.50
2023-04-28T08:39:46.105Z,16.50
2023-04-28T08:42:13.832Z,16.40
2023-04-28T08:44:41.429Z,16.70
2023-04-28T08:47:15.310Z,16.50
2023-04-28T08:49:44.517Z,16.50
2023-04-28T08:52:17.004Z,16.70
2023-04-28T08:54:45.202Z,17.10
2023-04-28T08:57:13.191Z,17.50
2023-04-28T08:59:42.313Z,17.90
2023-04-28T09:02:10.058Z,17.70
2023-04-28T09:04:37.890Z,17.80
2023-04-28T09:07:12.136Z,18.20
2023-04-28T09:09:41.739Z,18.40
2023-04-28T09:12:09.475Z,18.70
2023-04-28T09:14:38.976Z,18.60
2023-04-28T09:17:13.845Z,18.40
2023-04-28T09:19:44.980Z,18.20
2023-04-28T09:24:47.880Z,18.70
2023-04-28T09:27:15.869Z,19.00
2023-04-28T09:29:54.322Z,18.80
2023-04-28T09:32:23.848Z,18.40
2023-04-28T09:34:54.243Z,17.90
2023-04-28T09:37:24.016Z,18.00
2023-04-28T09:39:54.013Z,18.20
2023-04-28T09:42:41.108Z,18.10
2023-04-28T09:45:09.934Z,18.10
2023-04-28T09:47:39.409Z,18.60
2023-04-28T09:50:13.125Z,18.80
2023-04-28T09:52:42.632Z,18.60
2023-04-28T09:55:11.342Z,18.90
2023-04-28T09:57:40.226Z,19.20
2023-04-28T10:00:09.699Z,19.50
2023-04-28T10:05:12.386Z,19.50
2023-04-28T10:07:40.797Z,20.00
2023-04-28T10:10:08.613Z,20.00
2023-04-28T10:12:39.114Z,20.20
2023-04-28T10:15:09.250Z,20.60
2023-04-28T10:17:37.189Z,19.90
2023-04-28T10:20:05.528Z,20.00
2023-04-28T10:23:17.879Z,20.50
2023-04-28T10:25:50.808Z,21.10
2023-04-28T10:28:18.519Z,21.20
2023-04-28T10:31:09.518Z,21.00
2023-04-28T10:33:38.158Z,20.80
2023-04-28T10:36:06.641Z,20.80
2023-04-28T10:38:35.476Z,20.70
2023-04-28T10:41:03.659Z,20.30
2023-04-28T10:43:31.532Z,19.60
2023-04-28T10:46:02.179Z,19.70
2023-04-28T10:48:40.422Z,20.40
2023-04-28T10:51:08.185Z,20.80
2023-04-28T10:53:48.661Z,20.90
2023-04-28T10:56:17.014Z,21.20
2023-04-28T10:58:47.266Z,21.40
2023-04-28T11:01:31.088Z,20.60
2023-04-28T11:04:03.465Z,20.30
2023-04-28T11:06:36.134Z,20.40
2023-04-28T11:09:15.906Z,20.80
2023-04-28T11:12:07.276Z,20.90
2023-04-28T11:14:36.476Z,20.60
2023-04-28T11:17:18.886Z,20.40
2023-04-28T11:19:51.704Z,19.70
2023-04-28T11:22:20.916Z,19.40
2023-04-28T11:25:02.795Z,20.30
2023-04-28T11:27:34.752Z,20.80
2023-04-28T11:30:02.329Z,20.50
2023-04-28T11:32:32.055Z,19.90
2023-04-28T11:34:59.825Z,19.50
2023-04-28T11:37:27.501Z,19.50
2023-04-28T11:39:55.053Z,19.20
2023-04-28T11:42:22.387Z,19.10
2023-04-28T11:44:55.284Z,19.00
2023-04-28T11:47:35.301Z,19.60
2023-04-28T11:50:03.561Z,20.40
2023-04-28T11:52:30.872Z,20.70
2023-04-28T11:55:01.190Z,21.10
2023-04-28T11:57:29.253Z,21.50
2023-04-28T12:00:22.104Z,21.40
2023-04-28T12:02:49.904Z,21.30
2023-04-28T12:05:17.682Z,22.20
2023-04-28T12:07:46.027Z,22.00
2023-04-28T12:10:18.974Z,20.50
2023-04-28T12:12:52.630Z,20.20
2023-04-28T12:15:22.505Z,19.90
2023-04-28T12:17:51.255Z,19.60
2023-04-28T12:20:36.636Z,19.00
2023-04-28T12:23:04.218Z,19.00
2023-04-28T12:25:31.511Z,19.40
2023-04-28T12:28:03.003Z,19.70
2023-04-28T12:30:34.792Z,19.30
2023-04-28T12:33:02.507Z,19.30
2023-04-28T12:35:30.309Z,19.20
2023-04-28T12:37:59.086Z,18.80
2023-04-28T12:40:27.632Z,18.70
2023-04-28T12:42:57.119Z,18.60
2023-04-28T12:45:36.483Z,19.10
2023-04-28T12:48:06.050Z,19.10
2023-04-28T12:50:35.320Z,19.00
2023-04-28T12:53:07.533Z,19.00
2023-04-28T12:55:41.317Z,19.70
2023-04-28T12:58:29.214Z,20.10
2023-04-28T13:00:59.193Z,20.30
2023-04-28T13:03:30.413Z,19.80
2023-04-28T13:06:02.337Z,19.60
2023-04-28T13:08:34.460Z,19.70
2023-04-28T13:11:09.868Z,19.50
2023-04-28T13:13:48.563Z,20.10
2023-04-28T13:16:21.471Z,19.80
2023-04-28T13:18:53.215Z,19.50
2023-04-28T13:21:20.501Z,19.40
2023-04-28T13:23:47.972Z,19.30
2023-04-28T13:26:15.806Z,19.00
2023-04-28T13:28:43.256Z,18.90
2023-04-28T13:31:10.734Z,18.70
2023-04-28T13:33:38.024Z,18.70
2023-04-28T13:36:06.782Z,18.70
2023-04-28T13:38:34.715Z,18.70
2023-04-28T13:41:02.260Z,19.00
2023-04-28T13:43:31.288Z,19.60
2023-04-28T13:45:58.719Z,19.80
2023-04-28T13:48:28.032Z,20.10
2023-04-28T13:50:55.659Z,20.80
2023-04-28T13:53:22.986Z,21.10
2023-04-28T13:55:54.146Z,21.00
2023-04-28T13:58:23.330Z,20.80
2023-04-28T14:00:55.073Z,20.30
2023-04-28T14:03:25.116Z,20.30
2023-04-28T14:05:56.834Z,20.00
2023-04-28T14:08:27.122Z,19.70
2023-04-28T14:10:55.040Z,19.30
2023-04-28T14:13:22.320Z,19.00
2023-04-28T14:15:58.443Z,18.90
2023-04-28T14:18:27.012Z,18.80
2023-04-28T14:20:58.180Z,18.90
2023-04-28T14:23:28.953Z,18.80
2023-04-28T14:25:57.541Z,18.60
2023-04-28T14:28:24.749Z,18.70
2023-04-28T14:30:53.567Z,18.80
2023-04-28T14:33:21.069Z,18.70
2023-04-28T14:35:49.133Z,18.80
2023-04-28T14:38:16.468Z,18.90
2023-04-28T14:40:44.639Z,18.60
2023-04-28T14:43:11.884Z,18.50
2023-04-28T14:45:39.301Z,18.30
2023-04-28T14:48:08.132Z,18.30
2023-04-28T14:50:36.889Z,18.20
2023-04-28T14:53:07.300Z,18.20
2023-04-28T14:55:34.964Z,18.10
2023-04-28T14:58:03.085Z,17.80
2023-04-28T15:00:32.603Z,17.70
2023-04-28T15:02:59.853Z,17.70
2023-04-28T15:05:27.527Z,17.80
2023-04-28T15:07:55.229Z,17.80
2023-04-28T15:10:22.671Z,17.80
2023-04-28T15:12:49.967Z,17.50
2023-04-28T15:15:17.487Z,17.40
2023-04-28T15:17:45.546Z,17.30
2023-04-28T15:20:12.898Z,17.40
2023-04-28T15:22:41.383Z,17.40
2023-04-28T15:25:09.546Z,17.40
2023-04-28T15:27:36.953Z,17.30
2023-04-28T15:30:04.882Z,17.10
2023-04-28T15:32:32.671Z,17.10
2023-04-28T15:35:01.050Z,17.00
2023-04-28T15:37:52.082Z,17.00
2023-04-28T15:40:21.594Z,17.00
2023-04-28T15:42:49.635Z,16.90
2023-04-28T15:45:18.648Z,16.90
2023-04-28T15:47:47.956Z,16.80
2023-04-28T15:50:16.474Z,16.80
2023-04-28T15:52:47.473Z,16.70
2023-04-28T15:55:16.520Z,16.70
2023-04-28T15:57:44.835Z,16.70
2023-04-28T16:00:15.027Z,16.70
2023-04-28T16:02:45.072Z,16.70
2023-04-28T16:05:13.059Z,16.80
2023-04-28T16:07:41.329Z,16.80
2023-04-28T16:10:11.168Z,16.80
2023-04-28T16:12:40.476Z,16.80
2023-04-28T16:15:10.559Z,16.80
2023-04-28T16:17:38.805Z,16.90
2023-04-28T16:20:08.257Z,16.90
2023-04-28T16:22:36.932Z,16.80
2023-04-28T16:25:04.445Z,16.60
2023-04-28T16:27:32.840Z,16.60
2023-04-28T16:30:01.037Z,16.50
2023-04-28T16:32:29.130Z,16.40
2023-04-28T16:34:59.764Z,16.30
2023-04-28T16:37:27.199Z,16.20
2023-04-28T16:39:54.724Z,16.10
2023-04-28T16:42:22.823Z,15.90
2023-04-28T16:44:52.641Z,15.90
2023-04-28T16:47:20.907Z,15.80
2023-04-28T16:49:48.855Z,15.80
2023-04-28T16:52:17.006Z,15.70
2023-04-28T16:54:44.928Z,15.50
2023-04-28T16:57:12.370Z,15.60
2023-04-28T16:59:39.659Z,15.60
2023-04-28T17:02:07.213Z,15.50
2023-04-28T17:04:34.982Z,15.60
2023-04-28T17:07:06.138Z,15.50
2023-04-28T17:09:34.314Z,15.50
2023-04-28T17:12:01.542Z,15.50
2023-04-28T17:14:29.113Z,15.50
2023-04-28T17:16:56.857Z,15.50
2023-04-28T17:19:24.216Z,15.60
2023-04-28T17:21:53.277Z,15.60
2023-04-28T17:24:20.485Z,15.60
2023-04-28T17:26:48.171Z,15.60
2023-04-28T17:29:16.120Z,15.60
2023-04-28T17:31:43.507Z,15.50
2023-04-28T17:34:10.955Z,15.50
2023-04-28T17:36:38.268Z,15.40
2023-04-28T17:39:08.716Z,15.30
2023-04-28T17:41:37.419Z,15.20
2023-04-28T17:44:04.801Z,15.20
2023-04-28T17:46:32.847Z,15.10
2023-04-28T17:49:01.218Z,15.10
2023-04-28T17:51:28.920Z,15.00
2023-04-28T17:53:57.669Z,14.90
2023-04-28T17:56:25.427Z,14.90
2023-04-28T17:58:52.862Z,14.80
2023-04-28T18:01:20.102Z,14.70
2023-04-28T18:03:51.395Z,14.60
2023-04-28T18:06:22.472Z,14.50
2023-04-28T18:08:50.484Z,14.40
2023-04-28T18:11:28.391Z,14.30
2023-04-28T18:13:55.679Z,14.20
2023-04-28T18:16:23.248Z,14.00
2023-04-28T18:18:51.093Z,13.90
2023-04-28T18:21:19.308Z,13.90
2023-04-28T18:23:47.765Z,13.70
2023-04-28T18:26:15.149Z,13.60
2023-04-28T18:28:42.284Z,13.50
2023-04-28T18:31:09.677Z,13.40
2023-04-28T18:33:37.436Z,13.30
2023-04-28T18:36:14.261Z,13.30
2023-04-28T18:38:41.650Z,13.20
2023-04-28T18:41:18.949Z,13.20
2023-04-28T18:44:00.124Z,13.10
2023-04-28T18:46:29.704Z,13.10
2023-04-28T18:48:57.058Z,13.00
2023-04-28T18:51:24.702Z,12.90
2023-04-28T18:53:52.094Z,13.00
2023-04-28T18:56:21.172Z,12.90
2023-04-28T18:58:48.584Z,12.90
2023-04-28T19:01:17.360Z,12.80
2023-04-28T19:03:47.192Z,12.70
2023-04-28T19:06:15.765Z,12.70
2023-04-28T19:08:43.693Z,12.60
2023-04-28T19:11:11.324Z,12.50
2023-04-28T19:13:38.976Z,12.50
2023-04-28T19:16:06.716Z,12.50
2023-04-28T19:18:34.457Z,12.40
2023-04-28T19:21:05.656Z,12.30
2023-04-28T19:23:33.381Z,12.30
2023-04-28T19:26:01.122Z,12.20
2023-04-28T19:28:29.225Z,12.20
2023-04-28T19:30:57.749Z,12.20
2023-04-28T19:33:28.358Z,12.20
2023-04-28T19:35:55.994Z,12.20
2023-04-28T19:38:39.527Z,12.20
2023-04-28T19:41:07.570Z,12.00
2023-04-28T19:43:35.554Z,12.00
2023-04-28T19:46:03.762Z,12.10
2023-04-28T19:48:31.787Z,12.10
2023-04-28T19:51:00.268Z,12.10
2023-04-28T19:53:27.580Z,12.10
2023-04-28T19:55:56.580Z,12.00
2023-04-28T19:58:24.128Z,12.00
2023-04-28T20:00:51.411Z,12.00
2023-04-28T20:03:18.810Z,12.00
2023-04-28T20:05:46.363Z,12.00
2023-04-28T20:08:13.741Z,12.00
2023-04-28T20:10:41.131Z,11.90
2023-04-28T20:13:08.665Z,11.90
2023-04-28T20:15:35.986Z,11.90
2023-04-28T20:18:06.659Z,11.90
2023-04-28T20:20:33.898Z,11.90
2023-04-28T20:23:01.051Z,11.90
2023-04-28T20:25:28.731Z,11.90
2023-04-28T20:27:56.645Z,11.90
2023-04-28T20:30:24.203Z,11.80
2023-04-28T20:32:57.830Z,11.80
2023-04-28T20:35:25.258Z,11.70
2023-04-28T20:37:53.382Z,11.70
2023-04-28T20:40:29.893Z,11.70
2023-04-28T20:42:59.118Z,11.70
2023-04-28T20:45:39.577Z,11.60
2023-04-28T20:48:07.077Z,11.60
2023-04-28T20:50:38.426Z,11.50
2023-04-28T20:53:06.004Z,11.50
2023-04-28T20:55:33.870Z,11.40
2023-04-28T20:58:01.345Z,11.40
2023-04-28T21:00:29.089Z,11.40
2023-04-28T21:02:56.806Z,11.40
2023-04-28T21:05:24.674Z,11.30
2023-04-28T21:07:52.389Z,11.30
2023-04-28T21:10:21.328Z,11.30
2023-04-28T21:12:49.367Z,11.30
2023-04-28T21:15:16.832Z,11.30
2023-04-28T21:17:44.109Z,11.20
2023-04-28T21:20:12.019Z,11.20
2023-04-28T21:22:39.181Z,11.20
2023-04-28T21:25:07.345Z,11.20
2023-04-28T21:27:35.690Z,11.10
2023-04-28T21:30:03.130Z,11.10
2023-04-28T21:32:31.089Z,11.10
2023-04-28T21:34:58.532Z,11.00
2023-04-28T21:37:29.156Z,11.00
2023-04-28T21:39:58.273Z,11.10
2023-04-28T21:42:26.012Z,11.20
2023-04-28T21:44:53.264Z,11.10
2023-04-28T21:47:21.558Z,11.10
2023-04-28T21:49:49.162Z,11.00
2023-04-28T21:52:16.785Z,11.00
2023-04-28T21:54:44.176Z,11.00
2023-04-28T21:57:11.843Z,11.00
2023-04-28T21:59:39.506Z,11.00
2023-04-28T22:02:07.571Z,10.90
2023-04-28T22:04:35.605Z,10.90
2023-04-28T22:07:04.138Z,11.00
2023-04-28T22:09:33.484Z,11.00
2023-04-28T22:12:00.805Z,10.90
2023-04-28T22:14:40.285Z,10.90
2023-04-28T22:17:08.666Z,11.00
2023-04-28T22:19:36.246Z,11.00
2023-04-28T22:22:05.066Z,11.00
2023-04-28T22:24:42.241Z,11.00
2023-04-28T22:27:10.535Z,10.90
2023-04-28T22:29:37.920Z,10.90
2023-04-28T22:32:05.688Z,11.00
2023-04-28T22:34:33.038Z,11.00
2023-04-28T22:37:26.548Z,11.00
2023-04-28T22:40:05.353Z,11.00
2023-04-28T22:42:40.061Z,11.10
2023-04-28T22:45:08.894Z,11.10
2023-04-28T22:47:43.529Z,11.10
2023-04-28T22:50:11.642Z,11.10
2023-04-28T22:52:39.174Z,11.10
2023-04-28T22:55:06.792Z,11.20
2023-04-28T22:57:34.394Z,11.10
2023-04-28T23:00:02.383Z,11.10
2023-04-28T23:02:29.841Z,11.10
2023-04-28T23:04:57.302Z,11.00
2023-04-28T23:07:24.940Z,11.00
2023-04-28T23:09:52.533Z,11.00
2023-04-28T23:12:20.100Z,11.10
2023-04-28T23:14:47.486Z,11.20
2023-04-28T23:17:14.987Z,11.20
2023-04-28T23:19:42.630Z,11.20
2023-04-28T23:22:09.883Z,11.20
2023-04-28T23:24:38.266Z,11.20
2023-04-28T23:27:06.148Z,11.10
2023-04-28T23:29:33.746Z,11.10
2023-04-28T23:32:01.081Z,11.10
2023-04-28T23:34:28.821Z,11.10
2023-04-28T23:36:56.003Z,11.10
2023-04-28T23:39:23.213Z,11.10
2023-04-28T23:41:51.397Z,11.10
2023-04-28T23:44:18.635Z,11.10
2023-04-28T23:46:45.860Z,11.10
2023-04-28T23:49:13.956Z,11.10
2023-04-28T23:51:41.392Z,11.20
2023-04-28T23:54:09.823Z,11.20
2023-04-28T23:56:37.770Z,11.20
2023-04-28T23:59:05.877Z,11.20
